Austin, TX (78701)

8:26 PM CDT on August 29, 2016 (GMT -0500)
West End | | Change Station

Elev 564 ft 30.28 °N, 97.75 °W | Updated 7 seconds ago

Mostly Cloudy
Mostly Cloudy
75.7 °F
Feels Like 76 °F
N
3.6
Wind Variable Wind from ENE
Gusts 4.9 mph

Today
High -- | Low -- °F
--% Chance of Precip.
Yesterday
High -- | Low -- °F
Precip. -- in
Pressure 29.96 in
Visibility 10.0 miles
Clouds Few 3800 ft
Mostly Cloudy 7500 ft
Mostly Cloudy 9500 ft
Heat Index 76 °F
Dew Point 72 °F
Humidity 89%
Rainfall 0.43 in
Snow Depth Not available.
7:06 AM 7:56 PM
Waning Crescent, 6% visible
METAR KATT 300051Z AUTO VRB06KT 10SM FEW038 BKN075 BKN095 24/22 A2999 RMK AO2 RAE05B21E31 SLP145 P0000 T02440222
Pressure 29.96 in
Visibility 10.0 miles
Clouds Few 3800 ft
Mostly Cloudy 7500 ft
Mostly Cloudy 9500 ft
Heat Index 76 °F
Dew Point 72 °F
Humidity 89%
Rainfall 0.43 in
Snow Depth Not available.
7:06 AM 7:56 PM
Waning Crescent, 6% visible
METAR KATT 300051Z AUTO VRB06KT 10SM FEW038 BKN075 BKN095 24/22 A2999 RMK AO2 RAE05B21E31 SLP145 P0000 T02440222

10-Day Weather Forecast

Almanac

Astronomy

Aug. 29, 2016 Rise Set
Actual Time
Civil Twilight
Nautical Twilight
Astronomical Twilight
Moon
Length of Visible Light
Length of Day
Tomorrow will be .
, % of the Moon is Illuminated

Today's Extremes

State Highs State Lows

Community

WunderPhotos

Upload Photos

1,935,709 photos uploaded!

WunderBlog® & News

Nearby

Air Quality

  Air Quality AQ Index Pollutant
Not available.

Snow Depth

Station Depth Elevation

Earthquake Activity

City Distance Mag. Time & Date
Minimum magnitude displayed is 2.5.

Coastal Water Temperatures

Place Temperature

Stations

Nearby Weather Stations

Station Location Temp. Windchill Dew Point Humidity Wind Precip. Elev Updated Type
                   

Watches & Warnings

There are currently no watches in effect.